createdAt,value
2018-11-20T00:01:20.691Z,29.83
2018-11-20T00:04:14.486Z,30.77
2018-11-20T00:06:53.985Z,28.87
2018-11-20T00:09:53.671Z,29.03
2018-11-20T00:12:39.526Z,25.20
2018-11-20T00:15:25.764Z,30.63
2018-11-20T00:18:05.752Z,30.37
2018-11-20T00:20:51.296Z,30.93
2018-11-20T00:23:37.097Z,26.80
2018-11-20T00:26:23.156Z,29.93
2018-11-20T00:29:01.104Z,28.80
2018-11-20T00:31:42.160Z,28.37
2018-11-20T00:34:27.057Z,31.33
2018-11-20T00:37:13.048Z,30.70
2018-11-20T00:40:06.612Z,26.83
2018-11-20T00:42:52.622Z,32.57
2018-11-20T00:45:38.555Z,29.10
2018-11-20T00:48:24.606Z,29.70
2018-11-20T00:51:06.304Z,30.20
2018-11-20T00:53:56.828Z,31.17
2018-11-20T00:57:13.015Z,29.23
2018-11-20T01:00:09.516Z,31.43
2018-11-20T01:02:55.619Z,34.97
2018-11-20T01:05:55.243Z,33.70
2018-11-20T01:08:30.453Z,32.20
2018-11-20T01:11:23.785Z,32.07
2018-11-20T01:14:23.864Z,32.40
2018-11-20T01:17:10.166Z,34.40
2018-11-20T01:19:54.902Z,29.60
2018-11-20T01:22:57.643Z,35.07
2018-11-20T01:25:48.441Z,30.70
2018-11-20T01:28:35.883Z,31.40
2018-11-20T01:31:22.291Z,28.43
2018-11-20T01:34:08.667Z,38.23
2018-11-20T01:37:08.297Z,33.90
2018-11-20T01:39:54.299Z,30.73
2018-11-20T01:42:40.650Z,29.63
2018-11-20T01:45:28.093Z,34.23
2018-11-20T01:48:14.289Z,31.70
2018-11-20T01:51:09.494Z,29.97
2018-11-20T01:53:55.418Z,29.77
2018-11-20T01:56:41.808Z,29.50
2018-11-20T01:59:29.282Z,33.00
2018-11-20T02:02:15.244Z,34.30
2018-11-20T02:05:01.701Z,30.03
2018-11-20T02:07:40.885Z,31.90
2018-11-20T02:10:27.208Z,33.10
2018-11-20T02:14:04.454Z,32.50
2018-11-20T02:16:59.619Z,33.73
2018-11-20T02:19:47.064Z,28.47
2018-11-20T02:22:34.500Z,33.30
2018-11-20T02:25:19.960Z,30.10
2018-11-20T02:28:01.907Z,33.33
2018-11-20T02:30:40.411Z,30.07
2018-11-20T02:33:23.351Z,31.63
2018-11-20T02:36:07.814Z,32.50
2018-11-20T02:38:50.206Z,31.37
2018-11-20T02:41:28.456Z,38.23
2018-11-20T02:44:18.716Z,32.87
2018-11-20T02:47:04.879Z,31.97
2018-11-20T02:49:43.413Z,33.10
2018-11-20T02:52:33.905Z,28.83
2018-11-20T02:55:12.831Z,31.63
2018-11-20T02:58:06.677Z,33.40
2018-11-20T03:01:12.261Z,34.43
2018-11-20T03:03:58.382Z,31.30
2018-11-20T03:06:38.356Z,31.67
2018-11-20T03:09:29.686Z,33.43
2018-11-20T03:12:10.292Z,27.63
2018-11-20T03:14:56.524Z,29.13
2018-11-20T03:17:42.351Z,31.50
2018-11-20T03:20:30.628Z,33.27
2018-11-20T03:23:07.405Z,32.07
2018-11-20T03:26:13.213Z,31.30
2018-11-20T03:29:27.911Z,29.40
2018-11-20T03:32:15.377Z,31.73
2018-11-20T03:35:12.164Z,33.80
2018-11-20T03:37:58.599Z,30.63
2018-11-20T03:40:44.890Z,30.43
2018-11-20T03:43:39.216Z,31.67
2018-11-20T03:46:32.651Z,31.80
2018-11-20T03:49:22.234Z,37.03
2018-11-20T03:52:08.158Z,34.00
2018-11-20T03:54:51.375Z,33.53
2018-11-20T03:57:37.204Z,33.57
2018-11-20T04:00:37.460Z,32.80
2018-11-20T04:03:28.111Z,31.07
2018-11-20T04:06:06.194Z,33.60
2018-11-20T04:08:52.302Z,31.07
2018-11-20T04:11:45.858Z,32.27
2018-11-20T04:14:33.312Z,32.30
2018-11-20T04:17:27.321Z,31.50
2018-11-20T04:20:15.496Z,31.30
2018-11-20T04:23:01.553Z,29.50
2018-11-20T04:25:45.767Z,34.50
2018-11-20T04:28:44.945Z,30.63
2018-11-20T04:32:24.117Z,31.23
2018-11-20T04:35:10.085Z,34.83
2018-11-20T04:38:00.466Z,34.13
2018-11-20T04:40:47.055Z,33.57
2018-11-20T04:43:37.090Z,34.60
2018-11-20T04:46:24.295Z,34.47
2018-11-20T04:49:14.768Z,32.83
2018-11-20T04:52:04.795Z,31.90
2018-11-20T04:54:52.249Z,32.63
2018-11-20T04:57:54.913Z,35.33
2018-11-20T05:00:40.995Z,31.60
2018-11-20T05:03:26.997Z,33.87
2018-11-20T05:06:14.468Z,28.67
2018-11-20T05:09:04.713Z,32.63
2018-11-20T05:11:43.171Z,32.47
2018-11-20T05:14:29.309Z,27.93
2018-11-20T05:17:14.858Z,30.40
2018-11-20T05:20:01.257Z,29.37
2018-11-20T05:22:47.154Z,31.47
2018-11-20T05:25:43.444Z,33.50
2018-11-20T05:28:39.544Z,38.03
2018-11-20T05:31:32.860Z,28.63
2018-11-20T05:34:09.648Z,32.47
2018-11-20T05:36:49.081Z,35.20
2018-11-20T05:39:35.207Z,31.90
2018-11-20T05:42:21.545Z,30.47
2018-11-20T05:45:07.944Z,31.00
2018-11-20T05:47:55.396Z,29.43
2018-11-20T05:50:41.422Z,29.43
2018-11-20T05:53:27.737Z,33.57
2018-11-20T05:56:05.181Z,35.70
2018-11-20T05:58:55.529Z,34.10
2018-11-20T06:01:39.840Z,34.30
2018-11-20T06:04:39.427Z,30.07
2018-11-20T06:07:29.928Z,33.60
2018-11-20T06:10:29.578Z,27.80
2018-11-20T06:13:35.386Z,35.90
2018-11-20T06:16:34.598Z,36.80
2018-11-20T06:19:20.256Z,32.80
2018-11-20T06:22:16.602Z,34.20
2018-11-20T06:25:01.355Z,33.57
2018-11-20T06:28:06.979Z,33.93
2018-11-20T06:31:06.281Z,32.53
2018-11-20T06:34:06.018Z,34.70
2018-11-20T06:36:59.370Z,34.87
2018-11-20T06:39:49.458Z,32.57
2018-11-20T06:42:45.928Z,35.33
2018-11-20T06:45:51.630Z,38.13
2018-11-20T06:48:44.775Z,37.57
2018-11-20T06:51:23.025Z,36.07
2018-11-20T06:54:09.175Z,37.63
2018-11-20T06:56:59.300Z,40.27
2018-11-20T06:59:44.914Z,36.87
2018-11-20T07:02:25.650Z,37.20
2018-11-20T07:05:31.336Z,38.13
2018-11-20T07:08:11.904Z,32.27
2018-11-20T07:10:57.840Z,34.27
2018-11-20T07:13:50.357Z,35.37
2018-11-20T07:17:03.502Z,40.47
2018-11-20T07:20:02.877Z,34.93
2018-11-20T07:22:59.923Z,37.20
2018-11-20T07:25:46.142Z,33.90
2018-11-20T07:28:45.398Z,34.90
2018-11-20T07:31:44.734Z,35.67
2018-11-20T07:34:35.305Z,35.77
2018-11-20T07:37:17.831Z,29.97
2018-11-20T07:40:04.223Z,35.77
2018-11-20T07:42:44.667Z,35.00
2018-11-20T07:45:44.455Z,37.27
2018-11-20T07:48:43.772Z,34.00
2018-11-20T07:51:41.186Z,37.23
2018-11-20T07:54:31.230Z,34.70
2018-11-20T07:57:18.744Z,33.83
2018-11-20T08:00:00.026Z,38.10
2018-11-20T08:02:47.506Z,40.43
2018-11-20T08:05:39.785Z,36.97
2018-11-20T08:08:42.649Z,38.63
2018-11-20T08:11:28.464Z,38.43
2018-11-20T08:14:14.456Z,38.10
2018-11-20T08:17:01.890Z,31.77
2018-11-20T08:19:47.863Z,30.73
2018-11-20T08:22:26.719Z,32.50
2018-11-20T08:25:13.149Z,34.37
2018-11-20T08:27:59.077Z,30.27
2018-11-20T08:30:43.362Z,34.93
2018-11-20T08:33:30.822Z,27.60
2018-11-20T08:36:19.345Z,28.50
2018-11-20T08:39:05.266Z,31.20
2018-11-20T08:41:50.192Z,27.23
2018-11-20T08:44:36.537Z,30.30
2018-11-20T08:47:22.363Z,27.33
2018-11-20T08:50:08.295Z,30.73
2018-11-20T08:52:54.321Z,32.43
2018-11-20T08:55:39.733Z,32.57
2018-11-20T08:58:26.106Z,28.67
2018-11-20T09:01:17.054Z,32.30
2018-11-20T09:03:53.337Z,32.73
2018-11-20T09:06:52.989Z,33.07
2018-11-20T09:09:58.787Z,35.83
2018-11-20T09:12:48.847Z,30.00
2018-11-20T09:15:36.368Z,29.30
2018-11-20T09:18:30.783Z,27.63
2018-11-20T09:21:33.186Z,33.07
2018-11-20T09:24:19.591Z,31.97
2018-11-20T09:27:07.085Z,31.47
2018-11-20T09:29:57.346Z,30.37
2018-11-20T09:32:43.554Z,30.00
2018-11-20T09:35:40.445Z,27.37
2018-11-20T09:38:31.134Z,30.90
2018-11-20T09:41:17.295Z,28.50
2018-11-20T09:44:32.390Z,28.90
2018-11-20T09:47:31.955Z,29.87
2018-11-20T09:50:11.357Z,25.07
2018-11-20T09:53:01.896Z,24.60
2018-11-20T09:55:56.005Z,26.93
2018-11-20T09:58:49.551Z,27.13
2018-11-20T10:01:29.235Z,24.27
2018-11-20T10:04:11.456Z,28.73
2018-11-20T10:06:59.001Z,25.60
2018-11-20T10:09:35.130Z,31.10
2018-11-20T10:12:25.127Z,25.50
2018-11-20T10:15:11.486Z,25.33
2018-11-20T10:18:11.104Z,23.23
2018-11-20T10:20:57.241Z,26.13
2018-11-20T10:23:46.212Z,23.33
2018-11-20T10:26:32.335Z,26.17
2018-11-20T10:29:27.398Z,24.07
2018-11-20T10:32:17.751Z,25.03
2018-11-20T10:35:03.752Z,27.17
2018-11-20T10:38:00.347Z,24.50
2018-11-20T10:40:46.417Z,24.50
2018-11-20T10:43:49.046Z,27.07
2018-11-20T10:46:24.872Z,25.53
2018-11-20T10:49:10.942Z,24.27
2018-11-20T10:52:00.954Z,29.13
2018-11-20T10:54:51.157Z,27.40
2018-11-20T10:57:56.632Z,24.40
2018-11-20T11:00:42.595Z,23.10
2018-11-20T11:03:36.736Z,34.73
2018-11-20T11:06:23.065Z,25.63
2018-11-20T11:09:08.841Z,20.77
2018-11-20T11:12:11.799Z,25.20
2018-11-20T11:15:11.136Z,21.30
2018-11-20T11:18:01.346Z,26.40
2018-11-20T11:20:48.816Z,21.07
2018-11-20T11:23:25.333Z,24.87
2018-11-20T11:26:11.444Z,20.83
2018-11-20T11:28:58.918Z,25.93
2018-11-20T11:31:45.053Z,23.77
2018-11-20T11:34:38.653Z,22.83
2018-11-20T11:37:24.401Z,25.13
2018-11-20T11:40:10.786Z,23.33
2018-11-20T11:42:56.833Z,22.73
2018-11-20T11:45:49.964Z,23.77
2018-11-20T11:48:45.988Z,20.37
2018-11-20T11:51:35.212Z,27.00
2018-11-20T11:54:38.078Z,21.90
2018-11-20T11:57:34.744Z,25.07
2018-11-20T12:00:21.143Z,23.07
2018-11-20T12:05:55.942Z,24.93
2018-11-20T12:08:44.677Z,20.47
2018-11-20T12:11:30.676Z,22.17
2018-11-20T12:14:19.343Z,20.87
2018-11-20T12:17:05.449Z,25.67
2018-11-20T12:19:51.844Z,22.80
2018-11-20T12:22:45.179Z,19.27
2018-11-20T12:25:41.702Z,26.33
2018-11-20T12:28:32.712Z,21.13
2018-11-20T12:31:31.473Z,21.97
2018-11-20T12:34:21.963Z,27.33
2018-11-20T12:37:14.630Z,22.47
2018-11-20T12:39:58.405Z,21.90
2018-11-20T12:42:57.615Z,21.60
2018-11-20T12:46:01.959Z,23.70
2018-11-20T12:48:47.870Z,21.87
2018-11-20T12:51:35.310Z,22.43
2018-11-20T12:54:35.006Z,23.53
2018-11-20T12:57:25.531Z,22.23
2018-11-20T13:00:19.180Z,23.47
2018-11-20T13:03:05.996Z,18.73
2018-11-20T13:05:55.274Z,21.57
2018-11-20T13:08:41.346Z,21.90
2018-11-20T13:11:43.715Z,17.40
2018-11-20T13:14:26.766Z,18.60
2018-11-20T13:17:09.247Z,23.07
2018-11-20T13:19:54.161Z,19.70
2018-11-20T13:22:37.432Z,20.40
2018-11-20T13:25:20.201Z,22.07
2018-11-20T13:28:04.787Z,17.90
2018-11-20T13:31:10.169Z,16.53
2018-11-20T13:33:57.935Z,16.00
2018-11-20T13:36:42.555Z,21.40
2018-11-20T13:39:28.377Z,17.53
2018-11-20T13:42:06.637Z,17.20
2018-11-20T13:44:53.901Z,26.57
2018-11-20T13:47:40.076Z,16.43
2018-11-20T13:50:26.430Z,16.23
2018-11-20T13:53:12.710Z,21.17
2018-11-20T13:56:15.101Z,18.63
2018-11-20T13:59:08.790Z,20.80
2018-11-20T14:01:59.265Z,18.10
2018-11-20T14:04:36.915Z,17.93
2018-11-20T14:07:33.527Z,20.50
2018-11-20T14:10:23.705Z,16.70
2018-11-20T14:13:09.805Z,17.27
2018-11-20T14:15:56.262Z,16.93
2018-11-20T14:18:59.100Z,21.20
2018-11-20T14:21:49.113Z,20.37
2018-11-20T14:24:42.343Z,18.43
2018-11-20T14:27:28.728Z,16.87
2018-11-20T14:30:10.347Z,17.63
2018-11-20T14:32:56.290Z,16.20
2018-11-20T14:35:46.909Z,17.47
2018-11-20T14:38:40.386Z,22.57
2018-11-20T14:41:26.642Z,25.27
2018-11-20T14:44:17.171Z,17.83
2018-11-20T14:47:16.654Z,16.80
2018-11-20T14:49:57.914Z,18.77
2018-11-20T14:52:47.893Z,18.37
2018-11-20T14:55:34.010Z,16.63
2018-11-20T14:58:16.777Z,17.90
2018-11-20T15:01:06.896Z,18.73
2018-11-20T15:03:54.540Z,14.47
2018-11-20T15:06:47.829Z,15.87
2018-11-20T15:09:38.379Z,17.30
2018-11-20T15:12:17.950Z,17.37
2018-11-20T15:15:04.251Z,17.67
2018-11-20T15:17:42.240Z,17.37
2018-11-20T15:20:32.277Z,16.00
2018-11-20T15:23:08.942Z,25.53
2018-11-20T15:26:04.087Z,22.20
2018-11-20T15:28:52.548Z,19.03
2018-11-20T15:31:40.341Z,17.03
2018-11-20T15:34:25.118Z,17.23
2018-11-20T15:37:21.649Z,20.10
2018-11-20T15:40:11.878Z,16.50
2018-11-20T15:43:02.357Z,22.30
2018-11-20T15:45:40.302Z,19.23
2018-11-20T15:48:30.457Z,18.40
2018-11-20T15:51:07.384Z,16.30
2018-11-20T15:54:05.256Z,24.03
2018-11-20T15:56:51.385Z,16.57
2018-11-20T15:59:36.699Z,19.60
2018-11-20T16:02:27.286Z,21.80
2018-11-20T16:05:14.749Z,18.53
2018-11-20T16:08:09.950Z,22.47
2018-11-20T16:11:09.386Z,53.10
2018-11-20T16:13:51.346Z,25.30
2018-11-20T16:16:44.801Z,18.10
2018-11-20T16:19:25.897Z,26.53
2018-11-20T16:22:31.850Z,31.57
2018-11-20T16:25:28.140Z,32.10
2018-11-20T16:28:14.254Z,31.50
2018-11-20T16:31:16.813Z,36.37
2018-11-20T16:34:13.382Z,32.83
2018-11-20T16:37:19.020Z,39.77
2018-11-20T16:40:24.939Z,40.27
2018-11-20T16:43:12.390Z,87.80
2018-11-20T16:45:59.813Z,33.43
2018-11-20T16:48:47.287Z,20.63
2018-11-20T16:51:33.363Z,19.30
2018-11-20T16:54:19.274Z,21.73
2018-11-20T16:57:46.986Z,22.60
2018-11-20T17:00:36.594Z,19.00
2018-11-20T17:03:29.318Z,20.80
2018-11-20T17:06:07.708Z,28.57
2018-11-20T17:08:48.313Z,28.07
2018-11-20T17:11:35.603Z,25.27
2018-11-20T17:14:21.204Z,26.03
2018-11-20T17:16:57.818Z,25.63
2018-11-20T17:19:39.098Z,28.97
2018-11-20T17:22:31.591Z,28.27
2018-11-20T17:25:36.519Z,26.57
2018-11-20T17:28:12.264Z,29.67
2018-11-20T17:31:04.779Z,24.83
2018-11-20T17:33:53.453Z,32.57
2018-11-20T17:36:58.466Z,31.00
2018-11-20T17:39:47.990Z,33.13
2018-11-20T17:42:32.819Z,29.27
2018-11-20T17:45:19.493Z,30.40
2018-11-20T17:48:15.007Z,28.63
2018-11-20T17:51:00.155Z,27.57
2018-11-20T17:53:42.216Z,29.43
2018-11-20T17:56:28.907Z,30.07
2018-11-20T17:59:21.902Z,25.97
2018-11-20T18:02:05.391Z,27.40
2018-11-20T18:04:44.830Z,27.00
2018-11-20T18:07:30.431Z,26.40
2018-11-20T18:10:14.565Z,25.77
2018-11-20T18:12:58.141Z,26.70
2018-11-20T18:15:59.798Z,25.10
2018-11-20T18:18:40.172Z,24.20
2018-11-20T18:21:26.823Z,26.57
2018-11-20T18:24:23.371Z,25.83
2018-11-20T18:27:27.378Z,29.90
2018-11-20T18:30:12.741Z,28.30
2018-11-20T18:33:08.532Z,28.03
2018-11-20T18:36:01.445Z,23.00
2018-11-20T18:39:06.691Z,25.17
2018-11-20T18:41:59.189Z,26.60
2018-11-20T18:44:45.904Z,28.10
2018-11-20T18:47:35.538Z,30.70
2018-11-20T18:50:21.114Z,24.07
2018-11-20T18:53:20.267Z,29.80
2018-11-20T18:55:55.574Z,25.47
2018-11-20T18:58:54.368Z,27.37
2018-11-20T19:01:35.315Z,27.73
2018-11-20T19:04:31.244Z,31.00
2018-11-20T19:07:16.634Z,27.40
2018-11-20T19:10:12.375Z,35.47
2018-11-20T19:13:10.866Z,30.70
2018-11-20T19:15:56.463Z,33.17
2018-11-20T19:18:45.924Z,29.70
2018-11-20T19:21:28.262Z,28.10
2018-11-20T19:24:23.440Z,39.43
2018-11-20T19:27:53.226Z,42.17
2018-11-20T19:31:09.124Z,47.30
2018-11-20T19:34:03.475Z,41.63
2018-11-20T19:36:49.403Z,52.33
2018-11-20T19:39:25.100Z,45.57
2018-11-20T19:42:37.485Z,40.07
2018-11-20T19:45:20.273Z,42.10
2018-11-20T19:48:28.934Z,39.57
2018-11-20T19:51:14.652Z,48.20
2018-11-20T19:54:00.922Z,42.27
2018-11-20T19:56:49.501Z,42.90
2018-11-20T19:59:40.414Z,44.27
2018-11-20T20:02:37.395Z,34.83
2018-11-20T20:05:23.274Z,38.37
2018-11-20T20:08:09.048Z,33.80
2018-11-20T20:11:15.338Z,37.83
2018-11-20T20:14:17.511Z,41.57
2018-11-20T20:17:03.011Z,32.03
2018-11-20T20:19:50.414Z,30.93
2018-11-20T20:22:42.787Z,32.57
2018-11-20T20:25:41.466Z,31.70
2018-11-20T20:28:31.348Z,32.03
2018-11-20T20:31:30.343Z,31.20
2018-11-20T20:34:23.012Z,30.13
2018-11-20T20:37:21.660Z,32.73
2018-11-20T20:40:23.446Z,36.60
2018-11-20T20:43:10.106Z,37.10
2018-11-20T20:45:59.581Z,35.60
2018-11-20T20:48:55.292Z,30.83
2018-11-20T20:51:48.218Z,36.03
2018-11-20T20:54:33.863Z,35.60
2018-11-20T20:57:15.165Z,34.63
2018-11-20T21:00:00.681Z,36.70
2018-11-20T21:02:45.410Z,35.93
2018-11-20T21:05:50.474Z,35.87
2018-11-20T21:08:37.125Z,30.73
2018-11-20T21:11:19.262Z,38.97
2018-11-20T21:14:08.948Z,33.60
2018-11-20T21:16:55.617Z,33.80
2018-11-20T21:19:51.745Z,34.50
2018-11-20T21:22:37.225Z,36.47
2018-11-20T21:25:23.882Z,33.00
2018-11-20T21:28:13.275Z,36.63
2018-11-20T21:30:50.914Z,39.37
2018-11-20T21:33:29.451Z,42.23
2018-11-20T21:36:14.881Z,42.83
2018-11-20T21:39:00.402Z,44.50
2018-11-20T21:41:50.279Z,45.23
2018-11-20T21:44:35.823Z,45.77
2018-11-20T21:47:10.583Z,53.17
2018-11-20T21:50:00.395Z,67.67
2018-11-20T21:52:47.147Z,60.00
2018-11-20T21:55:36.664Z,56.37
2018-11-20T21:58:26.369Z,48.00
2018-11-20T22:01:15.426Z,45.20
2018-11-20T22:04:08.263Z,39.50
2018-11-20T22:06:56.166Z,40.67
2018-11-20T22:09:55.184Z,37.23
2018-11-20T22:12:44.849Z,58.07
2018-11-20T22:15:37.654Z,53.00
2018-11-20T22:18:23.033Z,65.27
2018-11-20T22:21:08.350Z,49.17
2018-11-20T22:24:10.048Z,36.07
2018-11-20T22:26:47.203Z,53.17
2018-11-20T22:29:36.941Z,43.37
2018-11-20T22:32:22.459Z,43.47
2018-11-20T22:35:07.719Z,46.03
2018-11-20T22:38:06.383Z,46.10
2018-11-20T22:41:11.438Z,37.97
2018-11-20T22:43:56.832Z,50.50
2018-11-20T22:46:42.360Z,54.47
2018-11-20T22:49:32.051Z,48.10
2018-11-20T22:52:37.103Z,49.13
2018-11-20T22:55:33.385Z,43.83
2018-11-20T22:58:35.500Z,44.87
2018-11-20T23:01:31.214Z,46.53
2018-11-20T23:04:16.816Z,47.30
2018-11-20T23:07:02.281Z,45.33
2018-11-20T23:09:29.402Z,40.40
2018-11-20T23:11:56.478Z,42.37
2018-11-20T23:14:23.567Z,43.20
2018-11-20T23:16:51.021Z,45.97
2018-11-20T23:19:18.402Z,40.73
2018-11-20T23:21:45.476Z,37.43
2018-11-20T23:24:13.485Z,36.63
2018-11-20T23:26:41.433Z,40.80
2018-11-20T23:29:08.058Z,35.17
2018-11-20T23:31:35.486Z,38.00
2018-11-20T23:34:02.646Z,36.93
2018-11-20T23:36:29.723Z,38.97
2018-11-20T23:38:56.824Z,34.63
2018-11-20T23:41:23.916Z,35.93
2018-11-20T23:43:51.074Z,34.47
2018-11-20T23:46:18.169Z,40.47
2018-11-20T23:48:45.265Z,40.93
2018-11-20T23:51:12.330Z,38.50
2018-11-20T23:53:39.460Z,36.97
2018-11-20T23:56:06.767Z,37.13
2018-11-20T23:58:33.885Z,36.67
